^^
Grace C. Lehan Memorial Weather Station Historical Data
Daily Summary for August 23, 2021 Units:  English    Metric   Both
Daily Weekly Monthly Yearly
  High: Low: Average:
Temperature: 74 °F 68.9 °F 72.1 °F
Dew Point: 73.1 °F 68 °F 71.2 °F
Humidity: 97% 97% 97%
Wind Speed: 2mph 0mph 0.1mph
Wind Gust: 10mph - -
Wind- - South
Pressure: 29.79 in 29.71 in -
Precipitation: 1.94 in    
 
 
Tabular Data for August 23, 2021
Time Temperature Dew Point Pressure Wind Wind Speed Wind Gust Humidity Rainfall Rate (Hourly) solar
00:09 69 °F 68.1 °F 29.77 in Calm     97% 0.00 in 0 W/m2
00:14 69 °F 68.1 °F 29.77 in Calm     97% 0.00 in 0 W/m2
00:19 68.9 °F 68.1 °F 29.77 in Calm     97% 0.00 in 0 W/m2
00:24 68.9 °F 68 °F 29.77 in Calm     97% 0.00 in 0 W/m2
00:29 68.9 °F 68 °F 29.77 in Calm     97% 0.00 in 0 W/m2
00:34 68.9 °F 68 °F 29.77 in Calm     97% 0.00 in 0 W/m2
00:39 68.9 °F 68 °F 29.77 in Calm     97% 0.00 in 0 W/m2
00:44 69 °F 68.1 °F 29.77 in Calm     97% 0.00 in 0 W/m2
00:49 69 °F 68.2 °F 29.77 in Calm     97% 0.00 in 0 W/m2
00:54 69.1 °F 68.2 °F 29.77 in Calm     97% 0.00 in 0 W/m2
00:59 69.2 °F 68.3 °F 29.77 in Calm     97% 0.00 in 0 W/m2
01:04 69.3 °F 68.4 °F 29.77 in Calm     97% 0.00 in 0 W/m2
01:09 69.4 °F 68.5 °F 29.77 in Calm     97% 0.00 in 0 W/m2
01:14 69.4 °F 68.5 °F 29.77 in Calm     97% 0.00 in 0 W/m2
01:19 69.3 °F 68.4 °F 29.77 in Calm     97% 0.00 in 0 W/m2
01:24 69.3 °F 68.4 °F 29.77 in Calm     97% 0.00 in 0 W/m2
01:29 69.2 °F 68.3 °F 29.78 in Calm     97% 0.00 in 0 W/m2
01:34 69.2 °F 68.3 °F 29.78 in Calm     97% 0.00 in 0 W/m2
01:39 69.1 °F 68.2 °F 29.77 in Calm     97% 0.00 in 0 W/m2
01:44 69.1 °F 68.2 °F 29.78 in Calm     97% 0.00 in 0 W/m2
01:49 69.1 °F 68.2 °F 29.78 in Calm     97% 0.00 in 0 W/m2
01:54 69.2 °F 68.3 °F 29.77 in Calm     97% 0.00 in 0 W/m2
01:59 69.2 °F 68.3 °F 29.77 in Calm     97% 0.00 in 0 W/m2
02:04 69.2 °F 68.3 °F 29.77 in Calm     97% 0.00 in 0 W/m2
02:09 69.2 °F 68.3 °F 29.77 in Calm     97% 0.00 in 0 W/m2
02:14 69.2 °F 68.3 °F 29.77 in Calm     97% 0.00 in 0 W/m2
02:19 69.2 °F 68.4 °F 29.77 in Calm     97% 0.00 in 0 W/m2
02:24 69.3 °F 68.4 °F 29.77 in Calm     97% 0.00 in 0 W/m2
02:29 69.4 °F 68.5 °F 29.77 in Calm     97% 0.00 in 0 W/m2
02:34 69.4 °F 68.5 °F 29.77 in Calm     97% 0.00 in 0 W/m2
02:39 69.5 °F 68.6 °F 29.77 in Calm     97% 0.00 in 0 W/m2
02:44 69.7 °F 68.8 °F 29.77 in Calm     97% 0.00 in 0 W/m2
02:49 69.8 °F 68.9 °F 29.77 in Calm     97% 0.00 in 0 W/m2
02:54 69.9 °F 69 °F 29.77 in Calm     97% 0.00 in 0 W/m2
02:59 70 °F 69.1 °F 29.77 in Calm     97% 0.00 in 0 W/m2
03:04 70.1 °F 69.2 °F 29.77 in Calm     97% 0.00 in 0 W/m2
03:09 70.1 °F 69.2 °F 29.77 in Calm     97% 0.00 in 0 W/m2
03:14 70.2 °F 69.3 °F 29.77 in Calm     97% 0.00 in 0 W/m2
03:19 70.2 °F 69.3 °F 29.77 in Calm     97% 0.00 in 0 W/m2
03:24 70.3 °F 69.4 °F 29.77 in Calm     97% 0.00 in 0 W/m2
03:29 70.4 °F 69.5 °F 29.77 in Calm     97% 0.00 in 0 W/m2
03:34 70.4 °F 69.6 °F 29.77 in Calm     97% 0.00 in 0 W/m2
03:39 70.6 °F 69.7 °F 29.77 in SSE 0.1 mph 2 mph 97% 0.00 in 0 W/m2
03:44 70.7 °F 69.8 °F 29.77 in Calm   2 mph 97% 0.00 in 0 W/m2
03:49 70.8 °F 69.9 °F 29.77 in SE 0.2 mph 4 mph 97% 0.00 in 0 W/m2
03:54 71 °F 70.1 °F 29.77 in Calm   4 mph 97% 0.00 in 0 W/m2
03:59 71.1 °F 70.2 °F 29.77 in Calm   4 mph 97% 0.00 in 0 W/m2
04:09 71.2 °F 70.3 °F 29.77 in Calm     97% 0.00 in 0 W/m2
04:14 71.3 °F 70.4 °F 29.77 in Calm     97% 0.00 in 0 W/m2
04:19 71.4 °F 70.5 °F 29.77 in Calm   1 mph 97% 0.00 in 0 W/m2
04:24 71.5 °F 70.6 °F 29.77 in Calm   1 mph 97% 0.00 in 0 W/m2
04:29 71.5 °F 70.6 °F 29.77 in Calm   1 mph 97% 0.00 in 0 W/m2
04:34 71.5 °F 70.6 °F 29.77 in Calm   1 mph 97% 0.00 in 0 W/m2
04:39 71.5 °F 70.6 °F 29.77 in Calm   2 mph 97% 0.00 in 0 W/m2
04:44 71.5 °F 70.6 °F 29.77 in SE 0.2 mph 3 mph 97% 0.00 in 0 W/m2
04:49 71.5 °F 70.6 °F 29.77 in Calm   3 mph 97% 0.00 in 0 W/m2
04:54 71.4 °F 70.5 °F 29.77 in Calm   3 mph 97% 0.00 in 0 W/m2
04:59 71.4 °F 70.5 °F 29.77 in Calm   3 mph 97% 0.00 in 0 W/m2
05:04 71.4 °F 70.5 °F 29.77 in Calm   3 mph 97% 0.00 in 0 W/m2
05:09 71.4 °F 70.5 °F 29.77 in Calm   2 mph 97% 0.00 in 0 W/m2
05:14 71.4 °F 70.5 °F 29.78 in SE 0.1 mph 2 mph 97% 0.00 in 0 W/m2
05:19 71.4 °F 70.5 °F 29.78 in Calm   2 mph 97% 0.00 in 0 W/m2
05:24 71.4 °F 70.5 °F 29.78 in Calm   2 mph 97% 0.00 in 0 W/m2
05:29 71.4 °F 70.5 °F 29.78 in SE 0.3 mph 5 mph 97% 0.00 in 0 W/m2
05:34 71.4 °F 70.5 °F 29.78 in Calm   5 mph 97% 0.00 in 0 W/m2
05:39 71.4 °F 70.5 °F 29.77 in Calm   1 mph 97% 0.00 in 0 W/m2
05:44 71.4 °F 70.5 °F 29.78 in Calm   1 mph 97% 0.00 in 0 W/m2
05:49 71.4 °F 70.5 °F 29.77 in Calm   1 mph 97% 0.00 in 0 W/m2
05:54 71.4 °F 70.5 °F 29.77 in Calm   1 mph 97% 0.00 in 0 W/m2
05:59 71.4 °F 70.5 °F 29.78 in Calm   1 mph 97% 0.01 in 0 W/m2
06:04 71.4 °F 70.5 °F 29.78 in Calm   1 mph 97% 0.02 in 0 W/m2
06:09 71.4 °F 70.5 °F 29.78 in Calm     97% 0.02 in 5 W/m2
06:14 71.4 °F 70.5 °F 29.78 in SE 0.2 mph 6 mph 97% 0.03 in 7 W/m2
06:19 71.4 °F 70.5 °F 29.78 in Calm   6 mph 97% 0.03 in 7 W/m2
06:24 71.4 °F 70.5 °F 29.78 in Calm   6 mph 97% 0.03 in 9 W/m2
06:29 71.4 °F 70.5 °F 29.78 in Calm   6 mph 97% 0.03 in 26 W/m2
06:34 71.4 °F 70.5 °F 29.78 in Calm   6 mph 97% 0.03 in 23 W/m2
06:39 71.5 °F 70.6 °F 29.78 in Calm     97% 0.03 in 32 W/m2
06:44 71.5 °F 70.6 °F 29.78 in Calm     97% 0.03 in 28 W/m2
06:49 71.5 °F 70.6 °F 29.78 in Calm     97% 0.03 in 26 W/m2
06:54 71.5 °F 70.6 °F 29.78 in Calm     97% 0.03 in 153 W/m2
06:59 71.7 °F 70.8 °F 29.78 in Calm     97% 0.03 in 167 W/m2
07:04 72.1 °F 71.2 °F 29.78 in Calm     97% 0.03 in 165 W/m2
07:09 72.2 °F 71.3 °F 29.78 in Calm     97% 0.02 in 88 W/m2
07:14 72.2 °F 71.3 °F 29.79 in Calm     97% 0.02 in 98 W/m2
07:19 72.1 °F 71.2 °F 29.78 in Calm     97% 0.02 in 116 W/m2
07:24 72.2 °F 71.3 °F 29.78 in Calm   2 mph 97% 0.02 in 132 W/m2
07:29 72.2 °F 71.3 °F 29.78 in SE 0.3 mph 5 mph 97% 0.02 in 132 W/m2
07:34 72.3 °F 71.4 °F 29.78 in Calm   5 mph 97% 0.02 in 86 W/m2
07:39 72.3 °F 71.4 °F 29.78 in SE 0.3 mph 6 mph 97% 0.00 in 142 W/m2
07:44 72.4 °F 71.5 °F 29.78 in Calm   6 mph 97% 0.00 in 74 W/m2
07:49 72.6 °F 71.7 °F 29.78 in Calm   6 mph 97% 0.00 in 62 W/m2
07:54 72.6 °F 71.7 °F 29.78 in Calm   6 mph 97% 0.00 in 44 W/m2
07:59 72.5 °F 71.6 °F 29.79 in Calm   6 mph 97% 0.00 in 42 W/m2
08:00 72.5 °F 71.6 °F 29.79 in Calm   6 mph 97% 0.00 in 30 W/m2
08:09 72.5 °F 71.6 °F 29.79 in Calm     97% 0.01 in 23 W/m2
08:14 72.5 °F 71.6 °F 29.79 in Calm   1 mph 97% 0.01 in 26 W/m2
08:19 72.5 °F 71.6 °F 29.79 in SE 0.1 mph 3 mph 97% 0.02 in 53 W/m2
08:24 72.5 °F 71.6 °F 29.79 in SE 0.1 mph 3 mph 97% 0.02 in 62 W/m2
08:29 72.5 °F 71.6 °F 29.79 in Calm   3 mph 97% 0.03 in 62 W/m2
08:34 72.6 °F 71.7 °F 29.79 in Calm   3 mph 97% 0.03 in 56 W/m2
08:39 72.6 °F 71.7 °F 29.79 in Calm     97% 0.03 in 49 W/m2
08:44 72.7 °F 71.8 °F 29.79 in Calm     97% 0.03 in 47 W/m2
08:49 72.7 °F 71.8 °F 29.79 in Calm     97% 0.04 in 46 W/m2
08:54 72.7 °F 71.8 °F 29.79 in Calm     97% 0.04 in 40 W/m2
08:59 72.7 °F 71.8 °F 29.79 in Calm   2 mph 97% 0.05 in 37 W/m2
09:04 72.6 °F 71.7 °F 29.79 in Calm   2 mph 97% 0.05 in 33 W/m2
09:09 72.6 °F 71.7 °F 29.79 in Calm     97% 0.06 in 28 W/m2
09:14 72.6 °F 71.7 °F 29.78 in Calm     97% 0.06 in 23 W/m2
09:19 72.6 °F 71.7 °F 29.78 in East 0.3 mph 4 mph 97% 0.08 in 23 W/m2
09:24 72.6 °F 71.7 °F 29.78 in Calm   4 mph 97% 0.09 in 26 W/m2
09:29 72.6 °F 71.7 °F 29.78 in Calm   4 mph 97% 0.11 in 37 W/m2
09:34 72.6 °F 71.7 °F 29.78 in Calm   4 mph 97% 0.11 in 46 W/m2
09:39 72.6 °F 71.7 °F 29.78 in Calm     97% 0.09 in 49 W/m2
09:44 72.7 °F 71.8 °F 29.79 in Calm     97% 0.09 in 49 W/m2
09:49 72.7 °F 71.8 °F 29.79 in Calm     97% 0.10 in 42 W/m2
09:54 72.7 °F 71.8 °F 29.79 in Calm     97% 0.10 in 51 W/m2
09:59 72.8 °F 71.9 °F 29.78 in Calm     97% 0.11 in 83 W/m2
10:04 72.9 °F 72 °F 29.78 in East 0.1 mph 2 mph 97% 0.11 in 98 W/m2
10:09 73 °F 72.1 °F 29.78 in Calm   2 mph 97% 0.09 in 70 W/m2
10:14 73.1 °F 72.2 °F 29.78 in Calm   2 mph 97% 0.09 in 91 W/m2
10:19 73.1 °F 72.2 °F 29.78 in East 0.2 mph 4 mph 97% 0.09 in 102 W/m2
10:24 73.2 °F 72.3 °F 29.78 in ENE 0.4 mph 5 mph 97% 0.09 in 105 W/m2
10:29 73.4 °F 72.5 °F 29.78 in Calm   5 mph 97% 0.09 in 125 W/m2
10:34 73.5 °F 72.6 °F 29.78 in ENE 0.8 mph 5 mph 97% 0.09 in 125 W/m2
10:39 73.6 °F 72.7 °F 29.77 in ENE 0.1 mph 5 mph 97% 0.03 in 114 W/m2
10:44 73.7 °F 72.8 °F 29.77 in ENE 0.4 mph 5 mph 97% 0.03 in 88 W/m2
10:49 73.7 °F 72.8 °F 29.77 in ENE 0.1 mph 5 mph 97% 0.03 in 69 W/m2
10:54 73.8 °F 72.9 °F 29.77 in East 0.1 mph 5 mph 97% 0.04 in 83 W/m2
10:59 73.8 °F 72.9 °F 29.77 in East 0.3 mph 5 mph 97% 0.04 in 83 W/m2
11:04 73.8 °F 72.9 °F 29.77 in Calm   5 mph 97% 0.04 in 76 W/m2
11:08 73.7 °F 72.8 °F 29.76 in ENE 0.3 mph 3 mph 97% 0.01 in 54 W/m2
11:14 73.6 °F 72.7 °F 29.76 in ENE 0.4 mph 5 mph 97% 0.01 in 35 W/m2
11:19 73.5 °F 72.6 °F 29.76 in ENE 0.5 mph 5 mph 97% 0.01 in 32 W/m2
11:24 73.5 °F 72.6 °F 29.75 in ENE 0.5 mph 6 mph 97% 0.02 in 37 W/m2
11:29 73.4 °F 72.5 °F 29.75 in ENE 0.1 mph 6 mph 97% 0.02 in 49 W/m2
11:34 73.5 °F 72.6 °F 29.75 in NE 0.5 mph 6 mph 97% 0.02 in 65 W/m2
11:39 73.5 °F 72.6 °F 29.75 in ENE 0.2 mph 5 mph 97% 0.03 in 18 W/m2
11:44 73.4 °F 72.5 °F 29.75 in Calm   5 mph 97% 0.07 in 9 W/m2
11:49 73.4 °F 72.5 °F 29.75 in Calm   5 mph 97% 0.10 in 25 W/m2
11:54 73.3 °F 72.4 °F 29.75 in Calm   5 mph 97% 0.19 in 19 W/m2
11:59 73.2 °F 72.3 °F 29.76 in ENE 0.4 mph 5 mph 97% 0.39 in 19 W/m2
12:00 73.2 °F 72.3 °F 29.76 in East 2 mph 5 mph 97% 0.39 in 18 W/m2
12:09 72.9 °F 72 °F 29.75 in Calm     97% 0.55 in 21 W/m2
12:14 72.8 °F 71.9 °F 29.75 in South 1.2 mph 6 mph 97% 0.60 in 33 W/m2
12:19 72.7 °F 71.8 °F 29.75 in Calm   6 mph 97% 0.61 in 49 W/m2
12:24 72.8 °F 71.9 °F 29.75 in SSE 0.2 mph 6 mph 97% 0.62 in 54 W/m2
12:29 72.8 °F 71.9 °F 29.75 in Calm   6 mph 97% 0.67 in 18 W/m2
12:34 72.8 °F 71.9 °F 29.74 in Calm   6 mph 97% 0.76 in 23 W/m2
12:39 72.8 °F 71.9 °F 29.74 in SSE 0.1 mph 2 mph 97% 0.88 in 23 W/m2
12:44 72.9 °F 72 °F 29.75 in SSE 0.1 mph 4 mph 97% 1.09 in 18 W/m2
12:49 72.8 °F 71.9 °F 29.74 in ESE 0.6 mph 6 mph 97% 1.15 in 54 W/m2
12:54 72.5 °F 71.6 °F 29.74 in South 0.5 mph 10 mph 97% 1.19 in 54 W/m2
12:59 72.5 °F 71.6 °F 29.75 in South 0.1 mph 10 mph 97% 1.22 in 67 W/m2
13:04 72.5 °F 71.6 °F 29.74 in SE 0.3 mph 10 mph 97% 1.22 in 67 W/m2
13:09 72.4 °F 71.5 °F 29.74 in Calm   5 mph 97% 0.60 in 79 W/m2
13:14 72.3 °F 71.4 °F 29.74 in ESE 0.1 mph 5 mph 97% 0.62 in 65 W/m2
13:19 72.3 °F 71.4 °F 29.74 in Calm   5 mph 97% 0.64 in 49 W/m2
13:24 72.3 °F 71.4 °F 29.74 in Calm   5 mph 97% 0.67 in 62 W/m2
13:29 72.3 °F 71.4 °F 29.74 in Calm   5 mph 97% 0.70 in 53 W/m2
13:33 72.3 °F 71.5 °F 29.74 in Calm   5 mph 97% 0.72 in 35 W/m2
13:39 72.4 °F 71.5 °F 29.74 in Calm     97% 0.74 in 62 W/m2
13:44 72.4 °F 71.5 °F 29.74 in ESE 0.3 mph 4 mph 97% 0.78 in 62 W/m2
13:49 72.4 °F 71.5 °F 29.74 in Calm   4 mph 97% 0.79 in 44 W/m2
13:54 72.4 °F 71.5 °F 29.74 in ESE 0.1 mph 4 mph 97% 0.81 in 51 W/m2
13:59 72.3 °F 71.4 °F 29.74 in Calm   4 mph 97% 0.84 in 51 W/m2
14:04 72.3 °F 71.4 °F 29.73 in Calm   4 mph 97% 0.84 in 39 W/m2
14:09 72.4 °F 71.5 °F 29.73 in Calm     97% 0.28 in 39 W/m2
14:14 72.4 °F 71.5 °F 29.73 in Calm     97% 0.28 in 37 W/m2
14:19 72.3 °F 71.5 °F 29.73 in Calm     97% 0.28 in 40 W/m2
14:24 72.3 °F 71.4 °F 29.73 in ESE 0.2 mph 5 mph 97% 0.28 in 44 W/m2
14:29 72.2 °F 71.3 °F 29.73 in ESE 0.1 mph 5 mph 97% 0.29 in 39 W/m2
14:33 72.2 °F 71.3 °F 29.73 in Calm   5 mph 97% 0.29 in 33 W/m2
14:39 72.3 °F 71.4 °F 29.73 in ESE 0.4 mph 5 mph 97% 0.18 in 74 W/m2
14:44 72.4 °F 71.5 °F 29.72 in ESE 0.4 mph 6 mph 97% 0.18 in 104 W/m2
14:49 72.5 °F 71.6 °F 29.72 in Calm   6 mph 97% 0.19 in 69 W/m2
14:54 72.6 °F 71.7 °F 29.72 in Calm   6 mph 97% 0.19 in 69 W/m2
14:59 72.7 °F 71.8 °F 29.72 in Calm   6 mph 97% 0.19 in 76 W/m2
15:04 72.8 °F 71.9 °F 29.72 in ESE 0.2 mph 6 mph 97% 0.19 in 62 W/m2
15:09 72.8 °F 71.9 °F 29.72 in ESE 0.4 mph 4 mph 97% 0.06 in 47 W/m2
15:14 72.8 °F 71.9 °F 29.72 in Calm   4 mph 97% 0.06 in 42 W/m2
15:19 72.8 °F 71.9 °F 29.72 in Calm   4 mph 97% 0.09 in 56 W/m2
15:24 72.8 °F 71.9 °F 29.72 in Calm   4 mph 97% 0.09 in 69 W/m2
15:29 72.9 °F 72 °F 29.72 in Calm   4 mph 97% 0.09 in 83 W/m2
15:34 73 °F 72.1 °F 29.72 in Calm   4 mph 97% 0.09 in 91 W/m2
15:39 73.1 °F 72.2 °F 29.72 in Calm     97% 0.07 in 86 W/m2
15:44 73.2 °F 72.3 °F 29.72 in Calm     97% 0.07 in 125 W/m2
15:49 73.3 °F 72.4 °F 29.72 in Calm     97% 0.07 in 114 W/m2
15:54 73.4 °F 72.5 °F 29.72 in Calm     97% 0.07 in 35 W/m2
15:59 73.4 °F 72.5 °F 29.72 in Calm     97% 0.09 in 46 W/m2
16:00 73.4 °F 72.5 °F 29.72 in Calm     97% 0.09 in 28 W/m2
16:09 73.3 °F 72.4 °F 29.72 in Calm     97% 0.06 in 40 W/m2
16:14 73.2 °F 72.3 °F 29.72 in Calm     97% 0.06 in 62 W/m2
16:19 73.2 °F 72.3 °F 29.72 in Calm     97% 0.06 in 54 W/m2
16:24 73.2 °F 72.3 °F 29.72 in Calm     97% 0.06 in 46 W/m2
16:29 73.2 °F 72.3 °F 29.72 in Calm     97% 0.06 in 32 W/m2
16:34 73.1 °F 72.2 °F 29.72 in Calm     97% 0.06 in 30 W/m2
16:39 73.1 °F 72.2 °F 29.72 in Calm     97% 0.04 in 30 W/m2
16:44 73.1 °F 72.2 °F 29.72 in Calm     97% 0.04 in 32 W/m2
16:49 73.1 °F 72.2 °F 29.72 in Calm   1 mph 97% 0.05 in 40 W/m2
16:54 73.2 °F 72.3 °F 29.72 in ESE 0.2 mph 3 mph 97% 0.05 in 60 W/m2
16:59 73.2 °F 72.3 °F 29.72 in Calm   3 mph 97% 0.05 in 183 W/m2
17:04 73.3 °F 72.4 °F 29.71 in Calm   3 mph 97% 0.05 in 234 W/m2
17:09 73.6 °F 72.7 °F 29.71 in Calm     97% 0.03 in 171 W/m2
17:14 73.9 °F 73 °F 29.71 in Calm     97% 0.03 in 90 W/m2
17:19 74 °F 73.1 °F 29.71 in Calm     97% 0.03 in 53 W/m2
17:24 74 °F 73.1 °F 29.71 in ESE 0.1 mph 2 mph 97% 0.03 in 26 W/m2
17:29 73.9 °F 73 °F 29.71 in Calm   2 mph 97% 0.03 in 16 W/m2
17:34 73.7 °F 72.8 °F 29.71 in Calm   2 mph 97% 0.03 in 16 W/m2
17:39 73.6 °F 72.7 °F 29.71 in Calm     97% 0.03 in 16 W/m2
17:44 73.5 °F 72.6 °F 29.71 in Calm     97% 0.03 in 16 W/m2
17:49 73.4 °F 72.5 °F 29.71 in Calm     97% 0.03 in 25 W/m2
17:54 73.4 °F 72.5 °F 29.71 in Calm     97% 0.04 in 25 W/m2
17:59 73.3 °F 72.4 °F 29.71 in Calm     97% 0.04 in 12 W/m2
18:04 73.3 °F 72.4 °F 29.71 in Calm     97% 0.04 in 9 W/m2
18:09 73.3 °F 72.4 °F 29.71 in ESE 0.1 mph 3 mph 97% 0.01 in 12 W/m2
18:14 73.3 °F 72.4 °F 29.71 in Calm   3 mph 97% 0.01 in 18 W/m2
18:19 73.3 °F 72.4 °F 29.71 in Calm   3 mph 97% 0.01 in 18 W/m2
18:24 73.3 °F 72.4 °F 29.71 in Calm   3 mph 97% 0.01 in 19 W/m2
18:29 73.3 °F 72.4 °F 29.71 in Calm   3 mph 97% 0.01 in 16 W/m2
18:34 73.4 °F 72.5 °F 29.72 in Calm   3 mph 97% 0.01 in 18 W/m2
18:39 73.4 °F 72.5 °F 29.71 in Calm     97% 0.01 in 7 W/m2
18:44 73.5 °F 72.6 °F 29.71 in Calm     97% 0.01 in 9 W/m2
18:49 73.5 °F 72.6 °F 29.71 in Calm     97% 0.01 in 12 W/m2
18:54 73.5 °F 72.6 °F 29.71 in Calm     97% 0.01 in 11 W/m2
18:59 73.5 °F 72.6 °F 29.71 in Calm     97% 0.01 in 7 W/m2
19:04 73.5 °F 72.6 °F 29.71 in Calm     97% 0.01 in 5 W/m2
19:09 73.5 °F 72.6 °F 29.71 in Calm     97% 0.00 in 0 W/m2
19:14 73.5 °F 72.6 °F 29.71 in Calm     97% 0.00 in 0 W/m2
19:19 73.5 °F 72.6 °F 29.71 in Calm     97% 0.00 in 0 W/m2
19:24 73.5 °F 72.6 °F 29.71 in Calm     97% 0.00 in 0 W/m2
19:29 73.5 °F 72.6 °F 29.71 in Calm     97% 0.00 in 0 W/m2
19:34 73.5 °F 72.6 °F 29.71 in Calm     97% 0.00 in 0 W/m2
19:39 73.5 °F 72.6 °F 29.71 in Calm     97% 0.00 in 0 W/m2
19:44 73.5 °F 72.6 °F 29.71 in Calm     97% 0.01 in 0 W/m2
19:49 73.4 °F 72.5 °F 29.71 in Calm     97% 0.08 in 0 W/m2
19:54 73.4 °F 72.5 °F 29.71 in Calm     97% 0.09 in 0 W/m2
19:59 73.4 °F 72.5 °F 29.71 in Calm     97% 0.09 in 0 W/m2
20:09 73.4 °F 72.5 °F 29.71 in Calm     97% 0.09 in 0 W/m2
20:14 73.4 °F 72.5 °F 29.71 in Calm     97% 0.09 in 0 W/m2
20:19 73.4 °F 72.5 °F 29.71 in Calm     97% 0.09 in 0 W/m2
20:24 73.3 °F 72.4 °F 29.71 in Calm     97% 0.09 in 0 W/m2
20:29 73.3 °F 72.4 °F 29.71 in Calm     97% 0.09 in 0 W/m2
20:34 73.3 °F 72.4 °F 29.71 in Calm     97% 0.09 in 0 W/m2
20:39 73.3 °F 72.4 °F 29.71 in Calm     97% 0.09 in 0 W/m2
20:44 73.3 °F 72.4 °F 29.72 in Calm     97% 0.09 in 0 W/m2
20:49 73.3 °F 72.4 °F 29.72 in Calm     97% 0.09 in 0 W/m2
20:54 73.3 °F 72.4 °F 29.72 in Calm     97% 0.09 in 0 W/m2
20:59 73.3 °F 72.4 °F 29.72 in Calm     97% 0.09 in 0 W/m2
21:04 73.3 °F 72.4 °F 29.72 in Calm     97% 0.09 in 0 W/m2
21:09 73.3 °F 72.4 °F 29.72 in Calm     97% 0.00 in 0 W/m2
21:14 73.3 °F 72.4 °F 29.72 in Calm     97% 0.00 in 0 W/m2
21:19 73.2 °F 72.3 °F 29.72 in Calm     97% 0.00 in 0 W/m2
21:24 73.2 °F 72.3 °F 29.72 in Calm     97% 0.00 in 0 W/m2
21:29 73.2 °F 72.3 °F 29.72 in Calm     97% 0.00 in 0 W/m2
21:34 73.2 °F 72.3 °F 29.72 in Calm     97% 0.00 in 0 W/m2
21:39 73.2 °F 72.3 °F 29.72 in Calm     97% 0.00 in 0 W/m2
21:44 73.2 °F 72.3 °F 29.71 in Calm     97% 0.00 in 0 W/m2
21:49 73.2 °F 72.3 °F 29.71 in Calm     97% 0.01 in 0 W/m2
21:54 73.2 °F 72.3 °F 29.71 in WSW 0.5 mph 5 mph 97% 0.01 in 0 W/m2
21:59 73.1 °F 72.2 °F 29.71 in WNW 1.5 mph 7 mph 97% 0.01 in 0 W/m2
22:04 73 °F 72.1 °F 29.71 in WNW 0.4 mph 7 mph 97% 0.01 in 0 W/m2
22:09 72.8 °F 71.9 °F 29.71 in WNW 0.2 mph 5 mph 97% 0.01 in 0 W/m2
22:14 72.7 °F 71.8 °F 29.71 in NW 1.4 mph 6 mph 97% 0.01 in 0 W/m2
22:19 72.5 °F 71.6 °F 29.71 in NW 1.2 mph 6 mph 97% 0.01 in 0 W/m2
22:24 72.3 °F 71.4 °F 29.71 in NW 1.5 mph 6 mph 97% 0.01 in 0 W/m2
22:29 72.2 °F 71.3 °F 29.71 in NW 0.8 mph 6 mph 97% 0.02 in 0 W/m2
22:34 72.1 °F 71.2 °F 29.71 in NW 0.8 mph 7 mph 97% 0.02 in 0 W/m2
22:39 72 °F 71.1 °F 29.71 in NNW 0.9 mph 8 mph 97% 0.02 in 0 W/m2
22:44 71.8 °F 71 °F 29.71 in NNW 0.6 mph 8 mph 97% 0.02 in 0 W/m2
22:49 71.7 °F 70.8 °F 29.72 in NNW 1.1 mph 8 mph 97% 0.02 in 0 W/m2
22:54 71.6 °F 70.7 °F 29.72 in NNW 0.7 mph 8 mph 97% 0.02 in 0 W/m2
22:59 71.5 °F 70.6 °F 29.72 in NNW 0.3 mph 8 mph 97% 0.02 in 0 W/m2
23:04 71.5 °F 70.6 °F 29.72 in WNW 0.8 mph 8 mph 97% 0.02 in 0 W/m2
23:09 71.4 °F 70.5 °F 29.72 in NW 0.6 mph 7 mph 97% 0.01 in 0 W/m2
23:14 71.4 °F 70.5 °F 29.72 in NW 0.4 mph 7 mph 97% 0.01 in 0 W/m2
23:19 71.3 °F 70.4 °F 29.72 in NW 0.4 mph 7 mph 97% 0.01 in 0 W/m2
23:24 71.3 °F 70.4 °F 29.72 in NW 0.8 mph 7 mph 97% 0.01 in 0 W/m2
23:29 71.2 °F 70.3 °F 29.72 in NW 1.8 mph 10 mph 97% 0.01 in 0 W/m2
23:34 71.1 °F 70.2 °F 29.73 in NW 0.3 mph 10 mph 97% 0.01 in 0 W/m2
23:39 71 °F 70.1 °F 29.73 in NW 0.5 mph 7 mph 97% 0.00 in 0 W/m2
23:44 71 °F 70.1 °F 29.73 in NW 0.3 mph 7 mph 97% 0.00 in 0 W/m2
23:49 70.9 °F 70.1 °F 29.73 in NW 0.4 mph 7 mph 97% 0.00 in 0 W/m2
23:54 70.9 °F 70 °F 29.73 in NW 1.1 mph 7 mph 97% 0.00 in 0 W/m2
23:59 70.9 °F 70 °F 29.73 in WNW 2 mph 8 mph 97% 0.00 in 0 W/m2
Hartford County Weather
Compliments of Weather Underground - 2 mb